Time;durP1;ratioP1;P1;durP2;ratioP2;P2;SDS_P1;SDS_P2;PMS_P1;PMS_P2;Temp;Humidity;BMP_temperature;BMP_pressure;BME280_temperature;BME280_humidity;BME280_pressure;Samples;Min_cycle;Max_cycle;Signal;HPM_P1;HPM_P2
2022/12/17 13:08:19;;;;;;;41.08;20.35;;;;;;;-4.49;77.82;99830.28;5023842;28;20037;-78
2022/12/17 13:10:45;;;;;;;44.47;21.35;;;;;;;-4.43;77.53;99846.22;5024736;28;20069;-78
2022/12/17 13:13:17;;;;;;;50.55;23.17;;;;;;;-4.31;77.29;99845.22;5026926;28;20030;-78
2022/12/17 13:15:54;;;;;;;52.33;22.10;;;;;;;-4.37;76.58;99845.72;5023276;28;20449;-78
2022/12/17 13:18:25;;;;;;;45.60;21.42;;;;;;;-4.60;77.06;99837.22;5015811;28;20037;-78
2022/12/17 13:21:24;;;;;;;49.95;21.80;;;;;;;-4.52;77.04;99840.97;5025224;28;20036;-78
2022/12/17 13:23:50;;;;;;;53.15;21.85;;;;;;;-4.47;77.19;99849.22;5022455;28;20041;-78
2022/12/17 13:26:18;;;;;;;44.78;21.08;;;;;;;-4.64;77.71;99846.25;5025923;28;20087;-78
2022/12/17 13:28:56;;;;;;;45.42;21.10;;;;;;;-4.74;78.04;99836.75;5025393;28;20508;-78
2022/12/17 13:31:27;;;;;;;54.97;24.00;;;;;;;-4.74;77.85;99837.53;5037225;28;20029;-78
2022/12/17 13:34:04;;;;;;;47.08;22.50;;;;;;;-4.65;77.31;99839.38;5035953;28;20111;-78
2022/12/17 13:37:07;;;;;;;52.67;24.73;;;;;;;-4.67;77.76;99838.69;5026357;28;20021;-78
2022/12/17 13:39:36;;;;;;;49.88;21.98;;;;;;;-4.90;78.65;99839.78;5018905;28;20136;-78
2022/12/17 13:42:02;;;;;;;42.78;22.67;;;;;;;-4.86;78.75;99837.75;5024609;28;20395;-78
2022/12/17 13:44:39;;;;;;;55.10;24.92;;;;;;;-4.88;79.08;99834.44;5023292;28;20037;-78
2022/12/17 13:47:04;;;;;;;48.78;20.92;;;;;;;-5.03;79.25;99849.56;5026141;28;20396;-78
2022/12/17 13:49:30;;;;;;;51.85;24.33;;;;;;;-4.92;79.51;99840.84;5038972;28;21583;-78
2022/12/17 13:52:16;;;;;;;55.70;24.67;;;;;;;-4.97;79.45;99848.22;5026779;28;20041;-78
2022/12/17 13:54:41;;;;;;;48.72;23.23;;;;;;;-4.89;79.29;99843.22;5007873;28;20036;-78
2022/12/17 13:57:14;;;;;;;46.58;23.02;;;;;;;-4.91;79.03;99829.47;5024618;28;20124;-78
2022/12/17 13:59:47;;;;;;;54.30;22.75;;;;;;;-4.76;78.63;99842.06;5025083;28;20049;-78
2022/12/17 14:02:30;;;;;;;46.60;22.02;;;;;;;-4.62;78.62;99848.72;5024272;28;20088;-78
2022/12/17 14:04:58;;;;;;;43.38;22.25;;;;;;;-4.72;78.11;99855.66;5009052;28;20100;-78
2022/12/17 14:07:26;;;;;;;48.33;23.15;;;;;;;-4.77;78.31;99837.81;5018737;28;20515;-78
2022/12/17 14:09:52;;;;;;;58.75;24.77;;;;;;;-4.78;78.39;99836.16;5004351;28;20488;-78
2022/12/17 14:12:21;;;;;;;48.28;22.40;;;;;;;-4.68;78.10;99842.25;5019812;28;20068;-78
2022/12/17 14:14:49;;;;;;;54.15;24.85;;;;;;;-4.83;78.37;99843.53;5022975;28;20091;-78
2022/12/17 14:17:26;;;;;;;52.97;24.90;;;;;;;-4.98;78.95;99855.19;5021197;28;20105;-78
2022/12/17 14:20:03;;;;;;;54.40;23.42;;;;;;;-4.99;79.23;99863.13;4988244;28;20350;-78
2022/12/17 14:22:39;;;;;;;52.67;23.23;;;;;;;-5.12;79.34;99852.91;5017937;28;20040;-78
2022/12/17 14:25:32;;;;;;;56.53;23.38;;;;;;;-5.17;79.26;99836.00;5016129;28;20037;-78
2022/12/17 14:28:18;;;;;;;51.10;22.02;;;;;;;-4.97;79.55;99867.25;5026559;28;20041;-78
2022/12/17 14:30:44;;;;;;;49.55;22.92;;;;;;;-4.94;79.60;99866.19;5033989;28;20100;-78
2022/12/17 14:33:31;;;;;;;44.88;21.17;;;;;;;-4.87;78.89;99868.16;5022762;28;20045;-78
2022/12/17 14:35:58;;;;;;;58.38;24.20;;;;;;;-4.99;78.91;99860.53;5025819;28;20037;-78
2022/12/17 14:38:25;;;;;;;45.08;23.17;;;;;;;-4.99;79.50;99868.34;5028057;28;21678;-78
2022/12/17 14:40:51;;;;;;;63.15;22.55;;;;;;;-4.89;78.92;99867.44;5030942;28;20075;-78
2022/12/17 14:43:24;;;;;;;81.53;24.35;;;;;;;-5.06;79.67;99855.00;5013750;28;20485;-78
2022/12/17 14:49:03;;;;;;;45.55;22.52;;;;;;;-5.14;79.78;99865.22;5027898;28;20048;-79
2022/12/17 14:51:37;;;;;;;55.13;24.73;;;;;;;-5.23;79.84;99865.94;5027181;28;20032;-79
2022/12/17 14:54:17;;;;;;;46.10;21.42;;;;;;;-5.15;79.30;99860.94;5028248;28;20034;-79
2022/12/17 14:56:44;;;;;;;47.05;21.15;;;;;;;-5.10;78.31;99881.38;5029034;28;20075;-79
2022/12/17 14:59:36;;;;;;;41.85;19.77;;;;;;;-5.29;78.51;99863.00;5043917;28;20041;-78
2022/12/17 15:02:09;;;;;;;47.78;20.52;;;;;;;-5.26;78.29;99881.78;5029108;28;20399;-78
2022/12/17 15:04:37;;;;;;;43.22;20.42;;;;;;;-5.46;78.43;99890.38;5028754;28;20025;-78
2022/12/17 15:07:04;;;;;;;47.97;19.85;;;;;;;-5.47;77.88;99879.16;5029047;28;20466;-78
2022/12/17 15:09:34;;;;;;;50.35;21.63;;;;;;;-5.66;77.88;99883.31;5014200;28;20139;-78
2022/12/17 15:12:00;;;;;;;55.22;20.73;;;;;;;-5.49;78.63;99881.03;5025524;28;20087;-79
2022/12/17 15:14:25;;;;;;;45.50;21.02;;;;;;;-5.51;78.84;99884.72;5031623;28;20041;-79
2022/12/17 15:16:51;;;;;;;46.45;20.80;;;;;;;-5.57;78.63;99870.41;5032740;28;20053;-78
2022/12/17 15:19:16;;;;;;;51.72;20.15;;;;;;;-5.38;77.93;99882.78;5048592;28;20025;-79
2022/12/17 15:21:42;;;;;;;39.65;19.48;;;;;;;-5.36;77.39;99880.88;5031784;28;20362;-78
2022/12/17 15:24:13;;;;;;;41.15;17.25;;;;;;;-5.43;76.64;99882.31;5028532;28;20029;-78
2022/12/17 15:26:39;;;;;;;51.58;20.33;;;;;;;-5.67;77.73;99871.25;5033202;28;20025;-79
2022/12/17 15:29:04;;;;;;;48.25;19.40;;;;;;;-5.55;77.16;99885.91;5028692;28;20021;-79
2022/12/17 15:31:30;;;;;;;46.78;20.13;;;;;;;-5.53;76.79;99889.22;5029022;28;20029;-79
2022/12/17 15:33:56;;;;;;;62.78;21.05;;;;;;;-5.61;76.70;99895.00;5029138;28;20056;-79
2022/12/17 15:36:23;;;;;;;52.47;23.60;;;;;;;-5.47;76.76;99899.94;5027385;28;20053;-77
2022/12/17 15:38:48;;;;;;;99.63;29.70;;;;;;;-5.67;76.64;99902.47;5024491;28;21157;-77
2022/12/17 15:43:57;;;;;;;51.95;23.88;;;;;;;-5.86;77.29;99889.28;5025877;28;20031;-78
2022/12/17 15:46:22;;;;;;;52.13;20.55;;;;;;;-5.82;77.12;99880.25;5024602;28;20025;-78
2022/12/17 15:48:48;;;;;;;41.17;20.52;;;;;;;-5.72;76.71;99902.00;5022967;28;20029;-77
2022/12/17 15:51:13;;;;;;;57.30;22.90;;;;;;;-5.89;76.27;99905.09;5005477;28;20388;-77
2022/12/17 15:53:38;;;;;;;50.05;25.60;;;;;;;-6.03;76.88;99906.19;5024390;28;20033;-77
2022/12/17 15:56:04;;;;;;;52.13;25.35;;;;;;;-6.07;76.94;99893.56;5017827;28;20030;-77
2022/12/17 15:58:30;;;;;;;53.38;25.38;;;;;;;-6.16;76.98;99882.09;5019406;28;20034;-77
2022/12/17 16:00:55;;;;;;;50.17;24.65;;;;;;;-6.08;77.08;99894.47;5023671;28;20093;-77
2022/12/17 16:03:21;;;;;;;54.03;24.50;;;;;;;-5.95;77.54;99906.41;5009049;28;20025;-77
2022/12/17 16:05:46;;;;;;;84.13;37.45;;;;;;;-5.87;77.07;99908.41;5023397;28;20064;-77
2022/12/17 16:08:12;;;;;;;81.38;35.08;;;;;;;-5.86;77.47;99902.28;5025888;28;20033;-77
2022/12/17 16:10:38;;;;;;;72.25;34.65;;;;;;;-5.89;77.00;99908.53;5020868;28;20353;-77
2022/12/17 16:13:04;;;;;;;68.97;33.28;;;;;;;-5.85;77.03;99914.34;5010276;28;20037;-76
2022/12/17 16:15:30;;;;;;;70.18;35.05;;;;;;;-5.79;76.97;99904.25;5025353;28;20021;-77
2022/12/17 16:17:55;;;;;;;72.63;33.33;;;;;;;-5.74;76.75;99911.66;5021755;28;20043;-77
2022/12/17 16:20:21;;;;;;;70.93;32.67;;;;;;;-5.87;77.24;99905.81;5036488;28;20156;-77
2022/12/17 16:22:47;;;;;;;64.45;29.77;;;;;;;-5.83;76.84;99902.00;5026289;28;20029;-77
2022/12/17 16:25:12;;;;;;;66.07;29.65;;;;;;;-5.95;76.84;99893.41;5010013;28;20392;-77
2022/12/17 16:27:40;;;;;;;55.92;29.25;;;;;;;-5.88;77.36;99911.97;5028338;28;20109;-77
2022/12/17 16:30:06;;;;;;;54.95;27.80;;;;;;;-5.85;76.59;99904.75;5011060;28;20439;-77
2022/12/17 16:32:32;;;;;;;47.72;25.75;;;;;;;-5.83;76.86;99915.00;5023552;28;20568;-77
2022/12/17 16:34:58;;;;;;;56.60;26.15;;;;;;;-5.90;76.53;99912.09;5027273;28;20033;-77
2022/12/17 16:37:23;;;;;;;52.47;26.60;;;;;;;-5.94;77.15;99920.25;5037664;28;20029;-77
2022/12/17 16:39:49;;;;;;;49.53;23.92;;;;;;;-5.83;76.53;99907.22;5042876;28;20021;-77
2022/12/17 16:42:14;;;;;;;49.95;21.95;;;;;;;-5.90;77.00;99908.66;5008197;28;20087;-77
2022/12/17 16:44:40;;;;;;;49.97;24.20;;;;;;;-5.91;77.28;99912.19;5003421;28;20145;-76
2022/12/17 16:47:05;;;;;;;50.38;22.23;;;;;;;-5.88;76.66;99915.41;5026137;28;20516;-76
2022/12/17 16:49:31;;;;;;;52.33;26.13;;;;;;;-5.91;76.35;99904.41;5008076;28;20025;-76
2022/12/17 16:51:56;;;;;;;45.15;20.55;;;;;;;-5.92;76.51;99919.19;5011073;28;20068;-77
2022/12/17 16:54:27;;;;;;;40.63;20.77;;;;;;;-5.84;76.08;99918.56;5026096;28;20036;-76
2022/12/17 16:56:53;;;;;;;45.28;20.17;;;;;;;-5.81;76.32;99934.72;5040216;28;20116;-76
2022/12/17 16:59:18;;;;;;;47.28;21.98;;;;;;;-5.89;76.00;99944.91;5023585;28;20033;-76
2022/12/17 17:01:46;;;;;;;46.42;20.48;;;;;;;-5.83;76.38;99933.22;5025128;28;20171;-76
2022/12/17 17:04:14;;;;;;;41.28;17.85;;;;;;;-5.80;76.01;99951.16;5025499;28;20128;-76
2022/12/17 17:06:43;;;;;;;35.45;19.48;;;;;;;-5.86;75.98;99956.84;5023636;28;20037;-76
2022/12/17 17:09:10;;;;;;;38.72;19.63;;;;;;;-5.90;76.15;99958.88;5027815;28;20890;-76
2022/12/17 17:11:36;;;;;;;38.00;17.98;;;;;;;-5.86;76.48;99955.09;5026962;28;20253;-76
2022/12/17 17:14:01;;;;;;;47.90;19.40;;;;;;;-5.84;76.03;99963.59;5024192;28;20052;-76
2022/12/17 17:16:27;;;;;;;43.08;19.60;;;;;;;-6.03;76.09;99949.53;5023087;28;20096;-76
2022/12/17 17:18:53;;;;;;;34.17;18.58;;;;;;;-5.92;76.08;99970.31;5025801;28;20029;-76
2022/12/17 17:21:18;;;;;;;39.22;18.13;;;;;;;-5.91;76.30;99971.97;5022534;28;20030;-76
2022/12/17 17:23:49;;;;;;;36.28;18.05;;;;;;;-5.94;76.13;99967.00;5025626;28;20029;-76
2022/12/17 17:26:15;;;;;;;35.83;18.00;;;;;;;-5.95;76.49;99967.94;5028063;28;20508;-76
2022/12/17 17:28:41;;;;;;;38.22;18.17;;;;;;;-5.81;75.65;99975.50;5007821;28;20029;-76
2022/12/17 17:31:10;;;;;;;39.30;18.73;;;;;;;-5.69;75.47;99962.38;4995576;28;20040;-76
2022/12/17 17:33:38;;;;;;;44.88;20.33;;;;;;;-5.57;74.88;99981.41;5025057;28;20520;-76
2022/12/17 17:36:24;;;;;;;42.83;18.35;;;;;;;-5.66;74.76;99969.13;5028628;28;20026;-76
2022/12/17 17:38:55;;;;;;;41.83;19.95;;;;;;;-5.74;74.77;99987.91;5026028;28;20025;-76
2022/12/17 17:41:23;;;;;;;36.95;18.30;;;;;;;-5.88;75.06;99979.53;5026915;28;20087;-76
2022/12/17 17:44:04;;;;;;;41.03;19.70;;;;;;;-5.94;75.36;99967.00;5027669;28;20125;-76
2022/12/17 17:46:30;;;;;;;37.15;17.42;;;;;;;-5.66;74.89;99987.31;5022110;28;20124;-76
2022/12/17 17:48:57;;;;;;;38.85;17.52;;;;;;;-5.56;74.23;99990.84;5022108;28;20060;-76
2022/12/17 17:51:26;;;;;;;35.85;16.70;;;;;;;-5.69;74.02;99990.97;5019060;28;20116;-77
2022/12/17 17:53:53;;;;;;;41.25;18.40;;;;;;;-5.58;73.96;99984.94;5022312;28;20084;-76
2022/12/17 17:56:20;;;;;;;33.72;16.92;;;;;;;-5.60;73.84;99997.25;5020119;28;20026;-76
2022/12/17 17:58:48;;;;;;;36.60;17.35;;;;;;;-5.66;73.84;99990.75;5028057;28;20550;-76
2022/12/17 18:01:19;;;;;;;34.05;16.00;;;;;;;-5.71;74.16;99989.44;5019175;28;20106;-77
2022/12/17 18:03:45;;;;;;;32.55;17.10;;;;;;;-5.66;73.86;99995.13;5040470;28;20060;-76
2022/12/17 18:06:14;;;;;;;36.75;15.77;;;;;;;-5.58;73.76;100003.16;5027771;28;20511;-76
2022/12/17 18:08:41;;;;;;;25.75;14.85;;;;;;;-5.60;73.21;100002.44;5030174;28;20025;-76
2022/12/17 18:11:14;;;;;;;30.30;16.55;;;;;;;-5.74;73.99;100000.88;5025209;28;20056;-76
2022/12/17 18:13:56;;;;;;;29.58;14.85;;;;;;;-5.80;74.58;100000.53;5025288;28;20550;-76
2022/12/17 18:16:28;;;;;;;30.50;14.57;;;;;;;-5.71;73.99;100007.63;5026170;28;20029;-76
2022/12/17 18:18:55;;;;;;;30.02;15.45;;;;;;;-5.76;73.92;100010.56;5027543;28;20099;-76
2022/12/17 18:21:22;;;;;;;38.50;16.17;;;;;;;-5.76;73.51;99994.97;5010555;28;20064;-76
2022/12/17 18:23:47;;;;;;;32.45;17.45;;;;;;;-5.78;73.14;100009.03;5011217;28;20049;-76
2022/12/17 18:26:14;;;;;;;31.92;15.88;;;;;;;-5.81;73.75;100015.28;5028876;28;20462;-76
2022/12/17 18:28:41;;;;;;;29.60;15.95;;;;;;;-5.73;73.51;100009.53;5030070;28;20033;-76
2022/12/17 18:31:12;;;;;;;32.80;15.00;;;;;;;-5.84;73.49;100009.53;5025293;28;20041;-76
2022/12/17 18:33:41;;;;;;;28.75;13.30;;;;;;;-6.01;73.88;100007.41;5028990;28;20037;-76
2022/12/17 18:36:08;;;;;;;26.60;14.35;;;;;;;-6.08;73.60;100006.19;5028610;28;20492;-76
2022/12/17 18:38:34;;;;;;;33.28;14.52;;;;;;;-6.01;73.55;100012.59;5021038;28;20049;-76
2022/12/17 18:43:21;;;;;;;27.40;14.65;;;;;;;-6.09;73.85;100007.97;5000257;28;20544;-76
2022/12/17 18:43:53;;;;;;;28.40;14.38;;;;;;;-6.01;73.87;100012.59;5014728;28;20076;-76
2022/12/17 18:46:18;;;;;;;34.10;15.55;;;;;;;-6.06;74.23;100014.69;5032553;28;20056;-76
2022/12/17 18:48:44;;;;;;;25.92;13.43;;;;;;;-6.06;73.81;100020.72;5044857;28;20041;-76
2022/12/17 18:51:09;;;;;;;25.85;13.35;;;;;;;-5.99;74.24;100021.94;5022834;28;20059;-76
2022/12/17 18:53:34;;;;;;;24.85;12.23;;;;;;;-5.94;73.59;100012.00;5029814;28;20025;-76
2022/12/17 18:56:10;;;;;;;25.38;12.80;;;;;;;-5.95;73.28;100025.13;5025196;28;20036;-76
2022/12/17 18:58:36;;;;;;;25.98;12.73;;;;;;;-5.99;73.29;100026.28;5022864;28;20523;-76
2022/12/17 19:01:03;;;;;;;25.48;12.02;;;;;;;-5.77;73.28;100021.94;5030757;28;20021;-76
2022/12/17 19:03:28;;;;;;;21.27;11.38;;;;;;;-5.69;73.02;100018.75;5028512;28;20029;-76
2022/12/17 19:05:54;;;;;;;25.40;12.55;;;;;;;-5.72;72.82;100022.41;5021685;28;20041;-76
2022/12/17 19:08:19;;;;;;;24.55;11.07;;;;;;;-5.59;71.92;100020.50;5024499;28;20124;-76
2022/12/17 19:10:44;;;;;;;23.27;11.60;;;;;;;-5.76;72.23;100028.78;5021361;28;20109;-76
2022/12/17 19:13:10;;;;;;;18.83;10.68;;;;;;;-5.65;72.12;100031.38;5022857;28;20040;-76
2022/12/17 19:15:35;;;;;;;22.40;11.27;;;;;;;-5.80;72.18;100029.97;5003979;28;20040;-76
2022/12/17 19:18:00;;;;;;;23.02;11.95;;;;;;;-5.83;72.30;100032.78;5038141;28;20601;-76
2022/12/17 19:20:26;;;;;;;19.00;9.98;;;;;;;-6.01;72.96;100038.56;5026658;28;20038;-76
2022/12/17 19:22:51;;;;;;;18.92;10.48;;;;;;;-5.90;72.79;100036.00;4993019;28;20034;-76
2022/12/17 19:25:16;;;;;;;19.73;10.52;;;;;;;-5.74;71.97;100041.66;5010344;28;20033;-76
2022/12/17 19:27:42;;;;;;;21.45;11.85;;;;;;;-5.77;71.88;100037.53;5036388;28;20485;-76
2022/12/17 19:30:08;;;;;;;23.38;11.40;;;;;;;-5.70;71.63;100030.09;4997486;28;20029;-76
2022/12/17 19:32:34;;;;;;;26.40;12.95;;;;;;;-5.75;71.95;100034.81;5025755;28;20125;-76
2022/12/17 19:34:59;;;;;;;28.00;12.80;;;;;;;-6.00;71.99;100027.22;5026197;28;20121;-76
2022/12/17 19:37:24;;;;;;;23.30;13.05;;;;;;;-6.23;72.01;100016.81;5021814;28;20468;-76
2022/12/17 19:39:50;;;;;;;23.70;12.02;;;;;;;-5.97;72.15;100053.00;5019294;28;20496;-76
2022/12/17 19:42:24;;;;;;;20.60;10.85;;;;;;;-6.08;72.57;100055.56;5006217;28;20112;-76
2022/12/17 19:44:52;;;;;;;24.70;12.05;;;;;;;-6.18;72.82;100050.22;5020825;28;20051;-76
2022/12/17 19:47:17;;;;;;;23.10;11.02;;;;;;;-6.20;73.10;100042.53;5036357;28;20124;-76
2022/12/17 19:49:43;;;;;;;24.77;10.85;;;;;;;-6.15;72.67;100044.78;5008569;28;20136;-76
2022/12/17 19:52:08;;;;;;;43.72;18.60;;;;;;;-6.25;73.12;100049.84;5040114;28;20117;-76
2022/12/17 19:54:34;;;;;;;72.35;31.00;;;;;;;-6.25;72.66;100026.47;5024394;28;20108;-76
2022/12/17 19:56:59;;;;;;;58.90;29.27;;;;;;;-6.12;73.11;100032.41;5022353;28;20422;-76
2022/12/17 19:59:25;;;;;;;45.17;23.05;;;;;;;-5.92;71.83;100017.09;5023129;28;20095;-76
2022/12/17 20:01:50;;;;;;;51.50;21.50;;;;;;;-6.11;72.36;100017.63;5024853;28;20029;-76
2022/12/17 20:04:17;;;;;;;42.50;18.48;;;;;;;-6.15;72.61;100031.81;5010165;28;20037;-76
2022/12/17 20:06:43;;;;;;;39.13;18.63;;;;;;;-6.18;72.02;100029.44;4994914;28;20042;-76
2022/12/17 20:09:09;;;;;;;36.33;17.33;;;;;;;-6.27;72.60;100017.94;5025998;28;20033;-76
2022/12/17 20:11:35;;;;;;;31.38;14.38;;;;;;;-6.17;72.10;100029.31;5028231;28;20037;-76
2022/12/17 20:14:00;;;;;;;27.20;13.57;;;;;;;-6.29;72.85;100045.00;5023014;28;20026;-76
2022/12/17 20:16:27;;;;;;;32.00;13.80;;;;;;;-6.25;72.43;100051.63;5024464;28;20036;-76
2022/12/17 20:18:52;;;;;;;26.05;12.50;;;;;;;-6.25;72.70;100049.84;5026502;28;20041;-76
2022/12/17 20:21:18;;;;;;;25.73;12.35;;;;;;;-6.25;72.54;100055.06;5008799;28;20083;-76
2022/12/17 20:23:48;;;;;;;25.20;12.32;;;;;;;-6.33;72.52;100046.13;5026321;28;20396;-76
2022/12/17 20:26:14;;;;;;;21.42;11.15;;;;;;;-6.33;72.92;100048.72;5020566;28;20025;-76
2022/12/17 20:28:39;;;;;;;22.98;11.40;;;;;;;-6.36;72.47;100047.22;5014753;28;20029;-76
2022/12/17 20:31:05;;;;;;;25.45;11.35;;;;;;;-6.30;71.87;100053.72;5000021;28;20092;-76
2022/12/17 20:33:31;;;;;;;22.27;11.65;;;;;;;-6.30;71.81;100048.53;5016320;28;20139;-76
2022/12/17 20:36:03;;;;;;;18.90;10.35;;;;;;;-6.16;72.34;100056.94;5002570;28;20408;-76
2022/12/17 20:38:28;;;;;;;21.48;11.15;;;;;;;-6.15;72.00;100058.63;5019364;28;20489;-76
2022/12/17 20:40:54;;;;;;;25.95;10.48;;;;;;;-6.23;72.05;100063.56;5014703;28;20044;-76
2022/12/17 20:43:19;;;;;;;27.60;10.32;;;;;;;-6.23;72.12;100055.75;4997395;28;20046;-76
2022/12/17 20:45:49;;;;;;;27.65;9.95;;;;;;;-6.13;72.25;100072.31;5039510;28;20065;-76
2022/12/17 20:48:15;;;;;;;16.88;9.63;;;;;;;-6.12;71.87;100061.00;5024062;28;20041;-76
2022/12/17 20:50:41;;;;;;;13.85;8.30;;;;;;;-6.18;71.11;100061.44;5024925;28;20032;-76
2022/12/17 20:53:06;;;;;;;20.73;8.68;;;;;;;-6.26;71.97;100078.53;5025422;28;20029;-76
2022/12/17 20:55:32;;;;;;;19.77;10.23;;;;;;;-6.19;71.80;100072.78;5019338;28;20048;-77
2022/12/17 20:57:57;;;;;;;16.95;9.32;;;;;;;-6.35;72.27;100061.00;5019966;28;20030;-76
2022/12/17 21:00:23;;;;;;;16.23;7.88;;;;;;;-6.20;71.59;100073.69;5003942;28;20464;-76
2022/12/17 21:02:48;;;;;;;16.98;8.88;;;;;;;-6.41;72.37;100085.66;5004918;28;20037;-76
2022/12/17 21:05:14;;;;;;;22.92;7.90;;;;;;;-6.32;72.12;100099.75;5025918;28;20029;-76
2022/12/17 21:07:39;;;;;;;19.58;9.57;;;;;;;-6.27;72.27;100097.66;5025164;28;20041;-76
2022/12/17 21:10:05;;;;;;;17.58;8.77;;;;;;;-6.22;72.18;100092.94;5005566;28;20044;-76
2022/12/17 21:13:27;;;;;;;18.00;9.43;;;;;;;-6.30;72.10;100095.28;5021356;28;20362;-76
2022/12/17 21:15:15;;;;;;;19.77;9.75;;;;;;;-6.37;71.91;100100.09;5006390;28;20033;-76
2022/12/17 21:17:41;;;;;;;19.23;8.98;;;;;;;-6.26;71.88;100104.50;5000715;28;20477;-76
2022/12/17 21:20:06;;;;;;;17.42;9.93;;;;;;;-6.43;72.14;100103.13;5018016;28;20048;-77
2022/12/17 21:22:32;;;;;;;19.58;9.55;;;;;;;-6.41;72.05;100116.81;4995834;28;20037;-76
2022/12/17 21:24:57;;;;;;;20.48;9.05;;;;;;;-6.25;71.92;100113.97;4998898;28;20029;-76
2022/12/17 21:27:22;;;;;;;19.92;9.43;;;;;;;-6.26;71.50;100105.31;5020939;28;20119;-76
2022/12/17 21:29:48;;;;;;;16.00;8.95;;;;;;;-6.30;71.73;100116.03;4977933;28;20037;-77
2022/12/17 21:32:13;;;;;;;18.92;8.10;;;;;;;-6.25;71.64;100114.78;5023331;28;20029;-76
2022/12/17 21:34:38;;;;;;;17.90;8.85;;;;;;;-6.34;71.36;100114.63;5000905;28;20033;-77
2022/12/17 21:37:04;;;;;;;20.88;9.48;;;;;;;-6.38;71.63;100131.38;5003945;28;20060;-77
2022/12/17 21:39:29;;;;;;;47.90;21.45;;;;;;;-6.45;72.18;100124.94;5024908;28;20026;-76
2022/12/17 21:44:39;;;;;;;40.38;20.20;;;;;;;-6.45;72.18;100114.56;5020916;28;20091;-77
2022/12/17 21:47:04;;;;;;;48.63;21.10;;;;;;;-6.46;72.37;100128.47;5015483;28;20034;-77
2022/12/17 21:49:30;;;;;;;43.35;21.20;;;;;;;-6.50;72.67;100117.47;5020979;28;20212;-76
2022/12/17 21:51:57;;;;;;;41.75;19.33;;;;;;;-6.52;72.38;100106.38;5025178;28;20503;-76
2022/12/17 21:54:23;;;;;;;38.90;18.70;;;;;;;-6.46;72.40;100121.50;5024936;28;20029;-77
2022/12/17 21:56:48;;;;;;;40.15;17.90;;;;;;;-6.38;72.56;100119.22;5037667;28;20132;-77
2022/12/17 21:59:15;;;;;;;32.10;15.60;;;;;;;-6.55;72.05;100098.00;5024951;28;20039;-76
2022/12/17 22:01:40;;;;;;;32.05;14.98;;;;;;;-6.42;72.66;100122.94;5018396;28;20072;-76
2022/12/17 22:04:05;;;;;;;33.00;15.40;;;;;;;-6.55;72.05;100100.59;5036641;28;20460;-76
2022/12/17 22:06:32;;;;;;;32.70;15.00;;;;;;;-6.40;72.18;100115.06;5019860;28;20037;-77
2022/12/17 22:08:58;;;;;;;26.02;13.13;;;;;;;-6.51;72.17;100108.03;5028093;28;21435;-77
2022/12/17 22:11:26;;;;;;;27.58;13.73;;;;;;;-6.36;72.01;100121.69;5020549;28;20389;-77
2022/12/17 22:14:10;;;;;;;26.33;13.30;;;;;;;-6.35;71.69;100131.13;5025110;28;20500;-76
2022/12/17 22:16:45;;;;;;;23.60;12.57;;;;;;;-6.20;71.16;100120.47;5020860;28;20026;-77
2022/12/17 22:19:21;;;;;;;21.25;9.73;;;;;;;-6.17;71.65;100127.22;5011717;28;20025;-77
2022/12/17 22:21:47;;;;;;;20.83;11.40;;;;;;;-6.20;71.06;100117.88;5022296;28;20489;-77
2022/12/17 22:24:18;;;;;;;24.23;10.85;;;;;;;-6.13;71.18;100132.06;5042363;28;20119;-77
2022/12/17 22:26:44;;;;;;;32.20;11.38;;;;;;;-6.18;70.81;100117.78;5022891;28;20397;-77
2022/12/17 22:29:10;;;;;;;19.98;10.02;;;;;;;-6.38;71.23;100131.38;5023793;28;20025;-77
2022/12/17 22:34:19;;;;;;;21.90;11.77;;;;;;;-6.35;71.54;100125.94;5025662;28;20087;-77
2022/12/17 22:36:44;;;;;;;20.25;10.15;;;;;;;-6.46;71.03;100137.09;5024244;28;20120;-77
2022/12/17 22:39:13;;;;;;;22.85;11.32;;;;;;;-6.49;71.28;100137.34;5026342;28;20044;-77
2022/12/17 22:44:24;;;;;;;19.35;10.27;;;;;;;-6.60;71.70;100128.63;5026828;28;20087;-76
2022/12/17 22:46:49;;;;;;;18.92;10.75;;;;;;;-6.60;71.33;100123.44;5026230;28;20045;-77
2022/12/17 22:49:15;;;;;;;22.73;10.38;;;;;;;-6.38;71.18;100149.53;5028694;28;20100;-77
2022/12/17 22:51:41;;;;;;;20.23;12.25;;;;;;;-6.44;71.11;100143.00;5031005;28;20477;-77
2022/12/17 22:54:07;;;;;;;21.88;9.02;;;;;;;-6.40;71.22;100151.41;5043504;28;20129;-76
2022/12/17 22:56:38;;;;;;;20.35;10.30;;;;;;;-6.47;71.13;100134.63;5025896;28;20087;-76
2022/12/17 22:59:04;;;;;;;20.92;10.45;;;;;;;-6.44;71.11;100145.59;5020418;28;20037;-76
2022/12/17 23:01:30;;;;;;;26.73;10.10;;;;;;;-6.43;71.17;100136.88;5024597;28;20033;-76
2022/12/17 23:03:57;;;;;;;18.33;9.63;;;;;;;-6.42;71.03;100151.50;5027052;28;20449;-76
2022/12/17 23:06:23;;;;;;;24.52;11.60;;;;;;;-6.53;71.47;100150.63;5008016;28;20041;-76
2022/12/17 23:08:48;;;;;;;21.10;10.40;;;;;;;-6.48;71.22;100144.16;5021396;28;20017;-76
2022/12/17 23:11:17;;;;;;;21.42;10.07;;;;;;;-6.57;71.25;100131.00;5022981;28;20071;-76
2022/12/17 23:13:43;;;;;;;19.70;10.02;;;;;;;-6.43;71.51;100144.69;5026396;28;20061;-76
2022/12/17 23:16:12;;;;;;;22.63;10.77;;;;;;;-6.39;71.26;100142.69;5025117;28;20021;-76
2022/12/17 23:18:38;;;;;;;24.83;10.32;;;;;;;-6.38;71.18;100142.59;5024812;28;20116;-76
2022/12/17 23:21:12;;;;;;;26.60;11.25;;;;;;;-6.36;70.54;100139.88;5025857;28;20045;-76
2022/12/17 23:23:38;;;;;;;24.80;10.85;;;;;;;-6.59;71.26;100131.13;5026117;28;20518;-76
2022/12/17 23:26:36;;;;;;;37.78;15.40;;;;;;;-6.48;70.67;100122.56;5023115;28;20096;-76
2022/12/17 23:29:07;;;;;;;38.45;16.30;;;;;;;-6.48;70.88;100128.59;4982129;28;20063;-79
2022/12/17 23:31:36;;;;;;;39.17;18.08;;;;;;;-6.49;70.90;100129.53;5028666;28;20025;-79
2022/12/17 23:34:03;;;;;;;38.28;19.30;;;;;;;-6.38;70.60;100145.19;5012675;28;20037;-79
2022/12/17 23:36:29;;;;;;;42.28;16.92;;;;;;;-6.22;69.94;100143.13;5033041;28;20063;-79
2022/12/17 23:38:55;;;;;;;33.78;16.40;;;;;;;-6.49;70.65;100139.94;5032381;28;20144;-79
2022/12/17 23:41:27;;;;;;;35.83;15.75;;;;;;;-6.52;71.08;100145.31;5030720;28;20056;-78
2022/12/17 23:43:53;;;;;;;28.92;14.90;;;;;;;-6.60;70.92;100139.84;5027231;28;20507;-78
2022/12/17 23:46:20;;;;;;;34.00;16.08;;;;;;;-6.40;70.82;100144.44;5011089;28;20034;-78
2022/12/17 23:48:46;;;;;;;35.20;15.35;;;;;;;-6.41;70.49;100148.00;5031561;28;20035;-78
2022/12/17 23:51:14;;;;;;;32.00;14.23;;;;;;;-6.34;70.08;100151.81;5044826;28;20025;-78
2022/12/17 23:53:40;;;;;;;27.67;14.73;;;;;;;-6.48;70.66;100146.75;5030571;28;20034;-78
2022/12/17 23:56:16;;;;;;;27.25;13.68;;;;;;;-6.52;70.55;100147.09;5030562;28;20029;-78
2022/12/17 23:58:42;;;;;;;31.60;14.13;;;;;;;-6.52;70.67;100147.09;5010979;28;20176;-78
